Time;durP1;ratioP1;P1;durP2;ratioP2;P2;SDS_P1;SDS_P2;PMS_P1;PMS_P2;Temp;Humidity;BMP_temperature;BMP_pressure;BME280_temperature;BME280_humidity;BME280_pressure;Samples;Min_cycle;Max_cycle;Signal;HPM_P1;HPM_P2
2022/02/23 00:01:35;;;;;;;10.32;0.63;;;6.10;99.90;;;;;;5075925;28;20027;-77
2022/02/23 00:04:02;;;;;;;8.68;0.65;;;6.10;99.90;;;;;;5078238;28;20016;-75
2022/02/23 00:06:27;;;;;;;9.15;0.55;;;6.00;99.90;;;;;;5075399;28;20032;-76
2022/02/23 00:08:53;;;;;;;15.57;1.33;;;6.00;99.90;;;;;;5075785;28;20024;-76
2022/02/23 00:11:19;;;;;;;14.95;0.52;;;6.00;99.90;;;;;;5075656;28;20047;-76
2022/02/23 00:13:45;;;;;;;10.77;1.45;;;6.00;99.90;;;;;;5076244;28;20487;-75
2022/02/23 00:16:11;;;;;;;21.45;0.82;;;6.00;99.90;;;;;;5095425;28;20020;-75
2022/02/23 00:18:36;;;;;;;15.07;0.68;;;6.10;99.90;;;;;;5095787;28;20027;-76
2022/02/23 00:21:02;;;;;;;15.50;0.80;;;6.00;99.90;;;;;;5095454;28;20028;-76
2022/02/23 00:23:28;;;;;;;9.35;0.32;;;6.00;99.90;;;;;;5095324;28;20076;-76
2022/02/23 00:25:53;;;;;;;17.38;1.33;;;6.00;99.90;;;;;;5095737;28;20032;-76
2022/02/23 00:28:19;;;;;;;10.80;0.47;;;6.00;99.90;;;;;;5087341;28;20024;-76
2022/02/23 00:30:45;;;;;;;15.90;1.10;;;6.00;99.90;;;;;;5075076;28;20493;-76
2022/02/23 00:33:10;;;;;;;11.85;1.38;;;6.00;99.90;;;;;;5075251;28;20060;-76
2022/02/23 00:35:36;;;;;;;14.15;2.20;;;5.90;99.90;;;;;;5075025;28;20039;-76
2022/02/23 00:38:02;;;;;;;15.25;1.13;;;5.90;99.90;;;;;;5075165;28;20099;-76
2022/02/23 00:40:27;;;;;;;17.42;0.30;;;5.90;99.90;;;;;;5075424;28;20021;-76
2022/02/23 00:42:53;;;;;;;14.40;1.73;;;5.80;99.90;;;;;;5084992;28;20050;-75
2022/02/23 00:45:20;;;;;;;10.73;0.77;;;5.90;99.90;;;;;;5093677;28;20414;-76
2022/02/23 00:47:45;;;;;;;11.00;0.98;;;5.80;99.90;;;;;;5094994;28;20021;-76
2022/02/23 00:50:11;;;;;;;15.80;1.10;;;7.90;99.90;;;;;;5095029;28;20016;-76
2022/02/23 00:52:36;;;;;;;15.85;0.55;;;5.90;99.90;;;;;;5093685;28;20054;-76
2022/02/23 00:55:03;;;;;;;7.45;0.82;;;6.00;99.90;;;;;;5093337;28;20028;-76
2022/02/23 00:57:28;;;;;;;17.83;0.63;;;5.90;99.90;;;;;;5092952;28;20081;-76
2022/02/23 00:59:54;;;;;;;7.63;0.28;;;5.90;99.90;;;;;;5095394;28;20028;-75
2022/02/23 01:02:20;;;;;;;12.32;0.40;;;5.90;99.90;;;;;;5095209;28;20023;-75
2022/02/23 01:04:45;;;;;;;8.68;0.15;;;5.90;99.90;;;;;;5094667;28;20020;-75
2022/02/23 01:07:13;;;;;;;9.98;0.70;;;5.80;99.90;;;;;;5093322;28;20508;-75
2022/02/23 01:09:38;;;;;;;10.68;0.50;;;5.80;99.90;;;;;;5092564;28;20031;-75
2022/02/23 01:12:04;;;;;;;9.38;0.20;;;5.80;99.90;;;;;;5073063;28;20033;-75
2022/02/23 01:14:30;;;;;;;12.32;0.98;;;5.80;99.90;;;;;;5074070;28;20021;-75
2022/02/23 01:16:56;;;;;;;7.30;0.30;;;5.80;99.90;;;;;;5073323;28;20036;-76
2022/02/23 01:19:22;;;;;;;9.95;0.63;;;5.80;99.90;;;;;;5072903;28;20020;-76
2022/02/23 01:21:47;;;;;;;5.43;0.08;;;5.70;99.90;;;;;;5074094;28;20021;-76
2022/02/23 01:24:13;;;;;;;11.00;0.10;;;5.70;99.90;;;;;;5079946;28;20031;-75
2022/02/23 01:26:39;;;;;;;12.32;0.52;;;5.70;99.90;;;;;;5086762;28;20385;-75
2022/02/23 01:29:04;;;;;;;9.68;1.55;;;5.70;99.90;;;;;;5072650;28;20141;-75
2022/02/23 01:31:30;;;;;;;11.15;0.98;;;5.60;99.90;;;;;;5072694;28;20111;-75
2022/02/23 01:33:55;;;;;;;10.50;0.80;;;5.60;99.90;;;;;;5073900;28;20033;-75
2022/02/23 01:36:21;;;;;;;7.15;0.43;;;5.60;99.90;;;;;;5073982;28;20378;-75
2022/02/23 01:38:46;;;;;;;8.52;0.57;;;5.60;99.90;;;;;;5072550;28;20021;-75
2022/02/23 01:41:17;;;;;;;7.82;0.35;;;5.80;99.90;;;;;;5084331;28;20021;-75
2022/02/23 01:43:43;;;;;;;15.52;1.05;;;5.70;99.90;;;;;;5093945;28;20020;-75
2022/02/23 01:46:09;;;;;;;9.90;0.10;;;5.60;99.90;;;;;;5093894;28;20049;-75
2022/02/23 01:48:35;;;;;;;9.15;0.32;;;5.70;99.90;;;;;;5092615;28;20170;-75
2022/02/23 01:51:00;;;;;;;11.00;0.40;;;5.60;99.90;;;;;;5092618;28;20055;-76
2022/02/23 01:53:26;;;;;;;8.68;0.17;;;5.60;99.90;;;;;;5093740;28;20386;-76
2022/02/23 01:55:51;;;;;;;13.30;1.02;;;5.50;99.90;;;;;;5076197;28;20363;-76
2022/02/23 01:58:17;;;;;;;13.07;0.77;;;5.60;99.90;;;;;;5073452;28;20032;-76
2022/02/23 02:00:42;;;;;;;10.90;1.05;;;5.50;99.90;;;;;;5073520;28;20024;-76
2022/02/23 02:03:08;;;;;;;4.90;0.28;;;5.50;99.90;;;;;;5073437;28;20099;-75
2022/02/23 02:05:34;;;;;;;12.07;0.45;;;5.50;99.90;;;;;;5092744;28;20050;-76
2022/02/23 02:07:59;;;;;;;9.68;0.43;;;5.50;99.90;;;;;;5093879;28;20024;-76
2022/02/23 02:10:25;;;;;;;7.50;0.35;;;5.50;99.90;;;;;;5093626;28;20385;-76
2022/02/23 02:12:50;;;;;;;9.02;0.00;;;5.50;99.90;;;;;;5092392;28;20016;-76
2022/02/23 02:15:16;;;;;;;12.10;0.22;;;5.50;99.90;;;;;;5093270;28;20089;-75
2022/02/23 02:17:41;;;;;;;8.45;1.13;;;5.40;99.90;;;;;;5089427;28;20012;-76
2022/02/23 02:20:09;;;;;;;15.07;1.40;;;5.50;99.90;;;;;;5072204;28;20405;-76
2022/02/23 02:22:35;;;;;;;11.95;1.92;;;5.50;99.90;;;;;;5072369;28;20482;-76
2022/02/23 02:25:00;;;;;;;17.55;1.98;;;5.60;99.90;;;;;;5071841;28;20154;-76
2022/02/23 02:27:27;;;;;;;7.13;0.55;;;5.60;99.90;;;;;;5073214;28;20151;-76
2022/02/23 02:29:52;;;;;;;6.38;0.70;;;5.60;99.90;;;;;;5071986;28;20070;-76
2022/02/23 02:32:18;;;;;;;12.85;1.23;;;5.60;99.90;;;;;;5076885;28;20539;-76
2022/02/23 02:34:47;;;;;;;9.55;0.38;;;5.60;99.90;;;;;;5071924;28;20013;-76
2022/02/23 02:37:14;;;;;;;12.27;0.15;;;5.50;99.90;;;;;;5073058;28;20036;-76
2022/02/23 02:39:40;;;;;;;12.38;0.82;;;5.50;99.90;;;;;;5072969;28;20431;-76
2022/02/23 02:42:07;;;;;;;6.38;0.10;;;5.50;99.90;;;;;;5073184;28;20355;-76
2022/02/23 02:44:36;;;;;;;7.65;0.60;;;5.50;99.90;;;;;;5073264;28;20106;-76
2022/02/23 02:47:02;;;;;;;12.27;1.67;;;5.50;99.90;;;;;;5084719;28;20473;-76
2022/02/23 02:49:27;;;;;;;10.13;0.25;;;5.50;99.90;;;;;;5072908;28;20371;-76
2022/02/23 02:51:53;;;;;;;9.50;0.88;;;5.40;99.90;;;;;;5073015;28;20031;-75
2022/02/23 02:54:19;;;;;;;17.70;1.13;;;5.50;99.90;;;;;;5071566;28;20024;-76
2022/02/23 02:56:45;;;;;;;9.25;0.30;;;5.50;99.90;;;;;;5073176;28;20020;-76
2022/02/23 02:59:11;;;;;;;9.50;0.47;;;5.40;99.90;;;;;;5075076;28;20062;-76
2022/02/23 03:01:37;;;;;;;12.63;0.93;;;5.40;99.90;;;;;;5091965;28;20051;-76
2022/02/23 03:04:06;;;;;;;11.93;0.52;;;5.40;99.90;;;;;;5091913;28;20416;-76
2022/02/23 03:06:31;;;;;;;;;;;5.40;99.90;;;;;;5092281;28;20024;-76
2022/02/23 03:08:57;;;;;;;6.75;0.77;;;5.40;99.90;;;;;;5091777;28;19915;-76
2022/02/23 03:11:24;;;;;;;5.68;0.20;;;5.50;99.90;;;;;;5093008;28;20024;-76
2022/02/23 03:13:50;;;;;;;8.70;0.40;;;5.40;99.90;;;;;;5090762;28;20111;-76
2022/02/23 03:16:16;;;;;;;7.93;0.30;;;5.50;99.90;;;;;;5091533;28;20051;-75
2022/02/23 03:18:42;;;;;;;16.10;0.30;;;5.50;99.90;;;;;;5092959;28;20020;-76
2022/02/23 03:21:08;;;;;;;7.65;0.40;;;5.50;99.90;;;;;;5091740;28;20043;-76
2022/02/23 03:23:35;;;;;;;12.95;0.95;;;5.50;99.90;;;;;;5092813;28;20028;-76
2022/02/23 03:26:01;;;;;;;11.68;1.50;;;5.50;99.90;;;;;;5092878;28;20031;-75
2022/02/23 03:28:27;;;;;;;12.05;0.30;;;5.50;99.90;;;;;;5082246;28;20063;-75
2022/02/23 03:30:52;;;;;;;7.88;0.38;;;5.50;99.90;;;;;;5072857;28;20017;-76
2022/02/23 03:33:18;;;;;;;11.93;0.40;;;5.50;99.90;;;;;;5072798;28;20043;-76
2022/02/23 03:35:45;;;;;;;8.43;0.60;;;5.50;99.90;;;;;;5071329;28;20016;-74
2022/02/23 03:38:11;;;;;;;5.78;0.77;;;5.40;99.90;;;;;;5071294;28;20550;-76
2022/02/23 03:40:37;;;;;;;7.63;1.10;;;5.40;99.90;;;;;;5074151;28;20482;-75
2022/02/23 03:43:04;;;;;;;7.65;0.35;;;5.30;99.90;;;;;;5087565;28;20177;-76
2022/02/23 03:45:30;;;;;;;4.30;0.57;;;5.40;99.90;;;;;;5096159;28;20089;-76
2022/02/23 03:47:56;;;;;;;8.32;0.47;;;5.30;99.90;;;;;;5096169;28;20066;-76
2022/02/23 03:50:21;;;;;;;7.22;1.02;;;5.30;99.90;;;;;;5096139;28;20079;-76
2022/02/23 03:52:47;;;;;;;10.60;0.60;;;5.20;99.90;;;;;;5094918;28;20036;-76
2022/02/23 03:55:15;;;;;;;11.05;0.55;;;5.20;99.90;;;;;;5096408;28;20020;-76
2022/02/23 03:57:41;;;;;;;12.47;1.13;;;5.20;99.90;;;;;;5075349;28;20024;-76
2022/02/23 04:00:10;;;;;;;6.32;1.38;;;5.10;99.90;;;;;;5075864;28;20028;-76
2022/02/23 04:02:35;;;;;;;6.50;0.05;;;5.10;99.90;;;;;;5075764;28;20409;-76
2022/02/23 04:05:02;;;;;;;9.43;0.57;;;5.10;99.90;;;;;;5089020;28;20020;-75
2022/02/23 04:07:27;;;;;;;14.13;0.20;;;5.10;99.90;;;;;;5095781;28;20020;-75
2022/02/23 04:09:53;;;;;;;7.65;0.73;;;5.10;99.90;;;;;;5096058;28;20517;-75
2022/02/23 04:12:19;;;;;;;14.13;1.35;;;5.10;99.90;;;;;;5094395;28;20054;-75
2022/02/23 04:14:46;;;;;;;16.02;1.27;;;5.00;99.90;;;;;;5094348;28;20042;-75
2022/02/23 04:17:11;;;;;;;9.02;0.88;;;5.00;99.90;;;;;;5094028;28;20020;-76
2022/02/23 04:19:37;;;;;;;9.07;0.75;;;4.90;99.90;;;;;;5075793;28;20021;-76
2022/02/23 04:22:04;;;;;;;11.43;0.47;;;4.90;99.90;;;;;;5074301;28;20107;-76
2022/02/23 04:24:30;;;;;;;14.90;0.20;;;4.80;99.90;;;;;;5075496;28;20474;-76
2022/02/23 04:26:55;;;;;;;11.10;0.70;;;4.80;99.90;;;;;;5075918;28;20077;-76
2022/02/23 04:29:21;;;;;;;6.72;0.00;;;4.70;99.90;;;;;;5075466;28;20028;-76
2022/02/23 04:31:47;;;;;;;6.72;0.40;;;4.70;99.90;;;;;;5076533;28;20029;-75
2022/02/23 04:34:13;;;;;;;16.17;0.63;;;4.70;99.90;;;;;;5087458;28;20476;-76
2022/02/23 04:36:38;;;;;;;5.32;0.60;;;4.70;99.90;;;;;;5095183;28;20035;-76
2022/02/23 04:39:05;;;;;;;8.15;0.20;;;4.70;99.90;;;;;;5095316;28;20008;-76
2022/02/23 04:41:31;;;;;;;4.55;0.22;;;4.60;99.90;;;;;;5095318;28;20020;-76
2022/02/23 04:43:57;;;;;;;10.90;0.45;;;4.60;99.90;;;;;;5095281;28;20031;-76
2022/02/23 04:46:22;;;;;;;9.35;0.17;;;4.60;99.90;;;;;;5093878;28;20039;-75
2022/02/23 04:48:50;;;;;;;10.15;0.95;;;4.50;99.90;;;;;;5077507;28;20032;-75
2022/02/23 04:51:16;;;;;;;10.15;0.85;;;4.50;99.90;;;;;;5073575;28;20034;-76
2022/02/23 04:53:43;;;;;;;19.65;1.38;;;4.50;99.90;;;;;;5075034;28;20017;-76
2022/02/23 04:56:09;;;;;;;13.05;2.30;;;4.30;99.90;;;;;;5073209;28;20027;-76
2022/02/23 04:58:35;;;;;;;7.88;0.55;;;4.30;99.90;;;;;;5074751;28;20023;-76
2022/02/23 05:01:01;;;;;;;8.95;0.85;;;4.30;99.90;;;;;;5089561;28;20047;-75
2022/02/23 05:03:27;;;;;;;8.50;0.52;;;4.30;99.90;;;;;;5089079;28;20477;-75
2022/02/23 05:05:53;;;;;;;15.52;1.48;;;4.30;99.90;;;;;;5093415;28;20081;-76
2022/02/23 05:08:19;;;;;;;7.95;0.28;;;4.40;99.90;;;;;;5093429;28;20065;-76
2022/02/23 05:10:46;;;;;;;9.93;0.73;;;4.50;99.90;;;;;;5094719;28;20104;-76
2022/02/23 05:13:12;;;;;;;16.35;0.98;;;4.50;99.90;;;;;;5093410;28;20050;-76
2022/02/23 05:15:38;;;;;;;8.95;0.47;;;4.50;99.90;;;;;;5093407;28;20028;-75
2022/02/23 05:18:08;;;;;;;11.95;1.15;;;4.50;99.90;;;;;;5090753;28;20024;-76
2022/02/23 05:20:35;;;;;;;12.55;0.52;;;4.40;99.90;;;;;;5094713;28;20483;-76
2022/02/23 05:23:01;;;;;;;8.43;0.88;;;4.40;99.90;;;;;;5093332;28;20048;-76
2022/02/23 05:25:28;;;;;;;9.00;0.43;;;4.30;99.90;;;;;;5076056;28;20036;-76
2022/02/23 05:27:53;;;;;;;18.92;2.08;;;4.30;99.90;;;;;;5094365;28;20031;-76
2022/02/23 05:30:19;;;;;;;16.75;1.77;;;4.30;99.90;;;;;;5094514;28;20473;-76
2022/02/23 05:32:45;;;;;;;5.13;0.10;;;4.30;99.90;;;;;;5094584;28;20552;-76
2022/02/23 05:35:11;;;;;;;7.40;0.38;;;4.40;99.90;;;;;;5092812;28;20115;-76
2022/02/23 05:37:38;;;;;;;12.80;0.50;;;4.40;99.90;;;;;;5094289;28;20392;-76
2022/02/23 05:40:06;;;;;;;7.32;0.20;;;4.40;99.90;;;;;;5091056;28;20022;-76
2022/02/23 05:42:32;;;;;;;2.38;0.10;;;4.30;99.90;;;;;;5094097;28;20031;-76
2022/02/23 05:44:58;;;;;;;3.97;1.05;;;4.20;99.90;;;;;;5094279;28;20012;-76
2022/02/23 05:47:23;;;;;;;19.40;1.13;;;4.20;99.90;;;;;;5092675;28;20130;-76
2022/02/23 05:49:49;;;;;;;6.20;0.28;;;4.30;99.90;;;;;;5093963;28;20024;-76
2022/02/23 05:52:15;;;;;;;10.57;0.68;;;4.30;99.90;;;;;;5094284;28;20020;-76
2022/02/23 05:54:41;;;;;;;13.38;0.90;;;4.30;99.90;;;;;;5075066;28;20024;-76
2022/02/23 05:57:07;;;;;;;9.45;0.30;;;4.20;99.90;;;;;;5072242;28;20028;-76
2022/02/23 05:59:33;;;;;;;8.82;0.47;;;4.30;99.90;;;;;;5074085;28;20054;-75
2022/02/23 06:01:58;;;;;;;8.38;1.40;;;4.40;99.90;;;;;;5071905;28;20012;-75
2022/02/23 06:04:24;;;;;;;11.73;0.35;;;4.50;99.90;;;;;;5081720;28;20544;-75
2022/02/23 06:06:49;;;;;;;10.02;1.40;;;4.40;99.90;;;;;;5086521;28;20044;-75
2022/02/23 06:09:15;;;;;;;9.95;0.35;;;4.40;99.90;;;;;;5073517;28;20059;-76
2022/02/23 06:11:41;;;;;;;12.18;0.75;;;4.50;99.90;;;;;;5073395;28;20103;-76
2022/02/23 06:14:07;;;;;;;12.93;0.40;;;4.50;99.90;;;;;;5073748;28;20143;-76
2022/02/23 06:16:32;;;;;;;14.95;0.90;;;4.50;99.90;;;;;;5073270;28;20033;-76
2022/02/23 06:18:58;;;;;;;5.85;0.57;;;4.60;99.90;;;;;;5072056;28;20120;-76
2022/02/23 06:21:25;;;;;;;13.07;0.85;;;4.50;99.90;;;;;;5084733;28;20099;-76
2022/02/23 06:23:51;;;;;;;6.38;1.27;;;4.50;99.90;;;;;;5093397;28;20024;-76
2022/02/23 06:26:17;;;;;;;13.18;0.40;;;4.50;99.90;;;;;;5092329;28;20035;-76
2022/02/23 06:28:43;;;;;;;10.30;0.93;;;4.50;99.90;;;;;;5093415;28;20028;-76
2022/02/23 06:31:09;;;;;;;11.57;1.00;;;4.50;99.90;;;;;;5087977;28;20021;-76
2022/02/23 06:33:37;;;;;;;5.40;0.30;;;4.50;99.90;;;;;;5073195;28;20546;-76
2022/02/23 06:36:03;;;;;;;7.78;0.32;;;4.40;99.90;;;;;;5071954;28;20028;-76
2022/02/23 06:38:29;;;;;;;10.95;1.15;;;4.40;99.90;;;;;;5073314;28;20025;-76
2022/02/23 06:40:56;;;;;;;6.60;0.63;;;4.30;99.90;;;;;;5071958;28;20043;-76
2022/02/23 06:43:22;;;;;;;5.97;0.60;;;4.30;99.90;;;;;;5073522;28;20021;-76
2022/02/23 06:45:50;;;;;;;10.75;0.35;;;4.20;99.90;;;;;;5088124;28;20055;-76
2022/02/23 06:48:22;;;;;;;12.43;0.80;;;4.20;99.90;;;;;;5089952;28;20016;-76
2022/02/23 06:50:48;;;;;;;6.65;0.65;;;4.20;99.90;;;;;;5092257;28;20161;-76
2022/02/23 06:53:15;;;;;;;18.85;1.00;;;4.20;99.90;;;;;;5092176;28;20047;-76
2022/02/23 06:55:42;;;;;;;8.95;0.82;;;4.20;99.90;;;;;;5093367;28;20477;-76
2022/02/23 06:58:08;;;;;;;6.97;0.43;;;4.10;99.90;;;;;;5092552;28;20028;-76
2022/02/23 07:00:35;;;;;;;15.50;0.85;;;4.20;99.90;;;;;;5093439;28;20047;-76
2022/02/23 07:03:01;;;;;;;14.63;0.82;;;4.20;99.90;;;;;;5092793;28;20027;-76
2022/02/23 07:05:26;;;;;;;14.10;0.40;;;4.20;99.90;;;;;;5093348;28;20024;-76
2022/02/23 07:07:52;;;;;;;28.05;1.35;;;4.20;99.90;;;;;;5091810;28;20020;-75
2022/02/23 07:10:28;;;;;;;6.05;0.63;;;4.30;99.90;;;;;;5093316;28;20552;-76
2022/02/23 07:12:54;;;;;;;10.38;0.93;;;4.40;99.90;;;;;;5093083;28;20381;-76
2022/02/23 07:15:23;;;;;;;13.93;1.50;;;4.50;99.90;;;;;;5095372;28;20028;-76
2022/02/23 07:17:49;;;;;;;8.82;1.73;;;4.50;99.90;;;;;;5097003;28;20107;-76
2022/02/23 07:20:16;;;;;;;8.13;1.45;;;4.60;99.90;;;;;;5096909;28;20016;-76
2022/02/23 07:22:41;;;;;;;12.85;0.95;;;4.70;99.90;;;;;;5096708;28;20043;-76
2022/02/23 07:25:09;;;;;;;8.35;0.65;;;4.80;99.90;;;;;;5096683;28;20412;-76
2022/02/23 07:27:36;;;;;;;12.32;0.82;;;4.90;99.90;;;;;;5096579;28;20028;-76
2022/02/23 07:30:04;;;;;;;12.63;1.40;;;5.00;99.90;;;;;;5096898;28;20031;-76
2022/02/23 07:32:31;;;;;;;10.65;1.10;;;5.00;99.90;;;;;;5096383;28;20500;-76
2022/02/23 07:34:57;;;;;;;11.13;0.50;;;5.00;99.90;;;;;;5096690;28;20050;-76
2022/02/23 07:37:23;;;;;;;10.00;0.98;;;5.10;99.90;;;;;;5095125;28;20020;-76
2022/02/23 07:39:54;;;;;;;10.10;0.80;;;5.20;99.90;;;;;;5096967;28;20453;-76
2022/02/23 07:42:20;;;;;;;9.40;1.15;;;5.20;99.90;;;;;;5095493;28;20020;-76
2022/02/23 07:44:47;;;;;;;14.07;0.70;;;5.20;99.90;;;;;;5096177;28;20027;-76
2022/02/23 07:47:14;;;;;;;12.80;0.52;;;5.30;99.90;;;;;;5095013;28;20111;-76
2022/02/23 07:49:40;;;;;;;9.38;0.40;;;5.30;99.90;;;;;;5096498;28;20020;-76
2022/02/23 07:52:06;;;;;;;12.00;0.80;;;5.40;99.90;;;;;;5096412;28;20099;-76
2022/02/23 07:54:32;;;;;;;10.50;0.88;;;5.50;99.90;;;;;;5096350;28;20473;-76
2022/02/23 07:56:57;;;;;;;9.98;0.85;;;5.60;99.90;;;;;;5096403;28;20473;-76
2022/02/23 07:59:23;;;;;;;15.80;1.60;;;5.70;99.90;;;;;;5096433;28;20024;-76
2022/02/23 08:01:49;;;;;;;17.20;0.50;;;5.70;99.90;;;;;;5095984;28;20042;-76
2022/02/23 08:04:15;;;;;;;6.22;0.43;;;5.80;99.90;;;;;;5096115;28;20080;-76
2022/02/23 08:06:42;;;;;;;10.63;1.17;;;5.90;99.90;;;;;;5094810;28;20063;-76
2022/02/23 08:09:09;;;;;;;7.80;0.30;;;5.90;99.90;;;;;;5095819;28;20039;-76
2022/02/23 08:11:37;;;;;;;12.32;1.10;;;6.40;99.90;;;;;;5095737;28;20039;-76
2022/02/23 08:14:09;;;;;;;9.85;1.23;;;6.10;99.90;;;;;;5094443;28;20035;-76
2022/02/23 08:19:31;;;;;;;10.65;0.55;;;6.20;99.90;;;;;;5096207;28;20393;-76
2022/02/23 08:21:59;;;;;;;17.85;1.45;;;6.40;99.90;;;;;;5096286;28;20077;-76
2022/02/23 08:24:27;;;;;;;10.85;0.60;;;6.50;99.90;;;;;;5095470;28;20069;-77
2022/02/23 08:26:54;;;;;;;11.30;1.55;;;6.60;99.90;;;;;;5095621;28;20058;-77
2022/02/23 08:29:20;;;;;;;9.95;0.45;;;6.70;99.90;;;;;;5094533;28;20385;-77
2022/02/23 08:31:45;;;;;;;13.57;1.88;;;6.80;99.90;;;;;;5095454;28;20024;-76
2022/02/23 08:34:11;;;;;;;11.52;0.65;;;6.80;99.90;;;;;;5095496;28;20093;-75
2022/02/23 08:36:37;;;;;;;12.50;0.50;;;6.80;99.90;;;;;;5094300;28;20024;-77
2022/02/23 08:39:04;;;;;;;10.63;0.60;;;6.90;99.90;;;;;;5096424;28;20024;-77
2022/02/23 08:41:29;;;;;;;13.02;0.98;;;7.00;99.90;;;;;;5096847;28;20024;-77
2022/02/23 08:43:55;;;;;;;11.13;0.52;;;7.10;99.90;;;;;;5096869;28;20020;-77
2022/02/23 08:46:20;;;;;;;16.67;1.60;;;7.10;99.90;;;;;;5095039;28;20388;-77
2022/02/23 08:48:46;;;;;;;9.63;0.43;;;7.20;99.90;;;;;;5094361;28;20485;-77
2022/02/23 08:51:11;;;;;;;9.55;0.82;;;7.20;99.90;;;;;;5096735;28;20035;-77
2022/02/23 08:53:37;;;;;;;13.00;0.40;;;7.40;99.90;;;;;;5096367;28;20024;-78
2022/02/23 08:56:03;;;;;;;9.30;0.30;;;7.40;99.90;;;;;;5096203;28;20020;-77
2022/02/23 08:58:28;;;;;;;14.50;1.30;;;7.40;99.90;;;;;;5095699;28;20028;-77
2022/02/23 09:00:54;;;;;;;6.72;0.40;;;7.50;99.90;;;;;;5095654;28;20385;-77
2022/02/23 09:03:21;;;;;;;11.27;1.58;;;7.60;99.90;;;;;;5095736;28;20397;-76
2022/02/23 09:05:47;;;;;;;9.10;0.10;;;7.70;99.90;;;;;;5094788;28;20475;-78
2022/02/23 09:08:13;;;;;;;8.30;0.68;;;7.80;99.90;;;;;;5095123;28;20043;-77
2022/02/23 09:10:39;;;;;;;10.20;0.52;;;7.80;99.90;;;;;;5095873;28;20016;-77
2022/02/23 09:13:05;;;;;;;7.57;0.52;;;7.90;99.90;;;;;;5095104;28;20477;-77
2022/02/23 09:15:31;;;;;;;19.50;1.20;;;8.00;99.90;;;;;;5094665;28;20085;-77
2022/02/23 09:17:57;;;;;;;5.35;1.08;;;8.10;99.90;;;;;;5095173;28;20028;-77
2022/02/23 09:20:23;;;;;;;8.80;0.52;;;8.20;99.90;;;;;;5095059;28;20050;-77
2022/02/23 09:22:49;;;;;;;11.85;0.47;;;8.30;99.90;;;;;;5093788;28;20496;-77
2022/02/23 09:25:14;;;;;;;11.68;0.22;;;8.30;99.90;;;;;;5094999;28;20020;-77
2022/02/23 09:27:40;;;;;;;13.45;0.70;;;8.40;99.90;;;;;;5095190;28;20020;-77
2022/02/23 09:30:08;;;;;;;7.07;1.45;;;8.40;99.90;;;;;;5093390;28;20020;-76
2022/02/23 09:32:34;;;;;;;10.20;0.52;;;8.50;99.90;;;;;;5095114;28;20020;-77
2022/02/23 09:34:59;;;;;;;5.15;0.55;;;8.50;99.90;;;;;;5094794;28;20530;-76
2022/02/23 09:37:25;;;;;;;16.92;1.08;;;10.20;99.90;;;;;;5093934;28;20020;-77
2022/02/23 09:39:51;;;;;;;8.10;0.20;;;8.50;99.90;;;;;;5093583;28;20077;-77
2022/02/23 09:42:18;;;;;;;7.30;0.50;;;8.60;99.90;;;;;;5094895;28;20032;-77
2022/02/23 09:44:44;;;;;;;8.35;1.17;;;8.80;99.90;;;;;;5094695;28;20048;-77
2022/02/23 09:47:10;;;;;;;5.82;0.55;;;8.90;99.90;;;;;;5093379;28;20073;-77
2022/02/23 09:49:41;;;;;;;10.52;0.38;;;8.90;99.90;;;;;;5093501;28;20433;-77
2022/02/23 09:52:08;;;;;;;12.80;1.48;;;8.90;99.90;;;;;;5094719;28;20050;-76
2022/02/23 09:54:34;;;;;;;7.90;0.93;;;9.00;99.90;;;;;;5093079;28;20023;-77
2022/02/23 09:56:59;;;;;;;12.90;0.98;;;9.00;99.90;;;;;;5094699;28;20028;-77
2022/02/23 09:59:25;;;;;;;8.63;1.02;;;8.90;99.90;;;;;;5094451;28;20020;-77
2022/02/23 10:01:53;;;;;;;14.38;1.25;;;8.90;99.90;;;;;;5093101;28;20020;-77
2022/02/23 10:04:22;;;;;;;9.23;0.90;;;8.90;99.90;;;;;;5093878;28;20016;-76
2022/02/23 10:06:49;;;;;;;9.75;1.35;;;9.00;99.90;;;;;;5094750;28;20028;-78
2022/02/23 10:09:14;;;;;;;12.75;1.25;;;8.90;99.90;;;;;;5096424;28;20016;-77
2022/02/23 10:11:44;;;;;;;6.00;0.93;;;9.10;99.90;;;;;;5094123;28;20023;-77
2022/02/23 10:14:11;;;;;;;18.40;1.77;;;9.10;99.90;;;;;;5095984;28;20016;-77
2022/02/23 10:16:39;;;;;;;11.23;2.08;;;9.20;99.90;;;;;;5095864;28;20032;-77
2022/02/23 10:19:13;;;;;;;10.93;1.35;;;9.20;99.90;;;;;;5096189;28;20020;-77
2022/02/23 10:21:47;;;;;;;9.45;1.05;;;9.20;99.90;;;;;;5095881;28;20047;-77
2022/02/23 10:24:21;;;;;;;11.02;1.60;;;9.10;99.90;;;;;;5096001;28;20476;-77
2022/02/23 10:26:58;;;;;;;13.10;2.17;;;9.10;99.90;;;;;;5095060;28;20058;-77
2022/02/23 10:29:25;;;;;;;8.20;0.95;;;9.20;99.90;;;;;;5094223;28;20032;-77
2022/02/23 10:31:51;;;;;;;13.98;1.40;;;9.30;99.90;;;;;;5095743;28;20148;-77
2022/02/23 10:34:24;;;;;;;8.85;1.17;;;9.40;99.90;;;;;;5095311;28;20036;-77
2022/02/23 10:37:04;;;;;;;7.15;0.98;;;9.50;99.90;;;;;;5094814;28;20095;-77
2022/02/23 10:39:38;;;;;;;6.93;1.00;;;9.60;99.90;;;;;;5094718;28;20070;-77
2022/02/23 10:42:12;;;;;;;8.30;0.95;;;9.70;99.90;;;;;;5094489;28;20371;-77
2022/02/23 10:44:40;;;;;;;6.18;1.10;;;9.70;99.90;;;;;;5094886;28;20032;-77
2022/02/23 10:47:07;;;;;;;8.93;0.93;;;10.60;99.90;;;;;;5093483;28;20504;-76
2022/02/23 10:49:32;;;;;;;11.00;1.50;;;9.80;99.90;;;;;;5096705;28;20067;-77
2022/02/23 10:52:06;;;;;;;14.20;1.30;;;9.80;99.90;;;;;;5099178;28;20020;-75
2022/02/23 10:54:34;;;;;;;14.73;3.58;;;9.90;99.90;;;;;;5099363;28;20029;-77
2022/02/23 10:56:59;;;;;;;17.48;1.80;;;9.80;99.90;;;;;;5100108;28;20049;-77
2022/02/23 10:59:25;;;;;;;11.20;2.05;;;9.90;99.90;;;;;;5098504;28;20473;-75
2022/02/23 11:01:51;;;;;;;9.57;1.08;;;10.00;99.90;;;;;;5098049;28;20095;-75
2022/02/23 11:04:20;;;;;;;7.97;0.68;;;10.00;99.90;;;;;;5098124;28;20101;-76
2022/02/23 11:06:51;;;;;;;6.65;0.75;;;10.00;99.90;;;;;;5097248;28;20024;-77
2022/02/23 11:09:17;;;;;;;9.63;1.10;;;10.00;99.90;;;;;;5097831;28;20031;-77
2022/02/23 11:11:47;;;;;;;9.57;1.92;;;10.20;99.90;;;;;;5096931;28;20024;-77
2022/02/23 11:14:13;;;;;;;6.50;1.63;;;10.20;99.90;;;;;;5096127;28;20020;-76
2022/02/23 11:16:40;;;;;;;6.65;0.68;;;10.40;99.90;;;;;;5096954;28;20036;-76
2022/02/23 11:19:06;;;;;;;7.88;0.65;;;10.50;99.90;;;;;;5097138;28;20024;-76
2022/02/23 11:21:35;;;;;;;11.18;1.02;;;10.50;99.90;;;;;;5097369;28;20076;-76
2022/02/23 11:24:03;;;;;;;10.35;0.60;;;10.50;99.90;;;;;;5095666;28;20055;-76
2022/02/23 11:26:32;;;;;;;6.13;0.63;;;10.50;99.90;;;;;;5097419;28;20427;-76
2022/02/23 11:29:09;;;;;;;;;;;10.50;99.90;;;;;;5097930;28;20032;-76
2022/02/23 11:31:37;;;;;;;8.27;0.40;;;10.60;99.90;;;;;;5095763;28;20323;-76
2022/02/23 11:34:04;;;;;;;5.38;0.50;;;10.50;99.90;;;;;;5097030;28;20374;-76
2022/02/23 11:36:39;;;;;;;7.78;0.80;;;11.40;99.90;;;;;;5096578;28;20024;-76
2022/02/23 11:39:17;;;;;;;11.35;1.23;;;10.50;99.90;;;;;;5095692;28;20421;-76
2022/02/23 11:41:48;;;;;;;6.65;0.93;;;10.50;99.90;;;;;;5097125;28;20401;-76
2022/02/23 11:44:16;;;;;;;7.35;0.98;;;10.40;99.90;;;;;;5095426;28;20473;-76
2022/02/23 11:46:50;;;;;;;7.35;0.73;;;10.40;99.90;;;;;;5096416;28;20028;-76
2022/02/23 11:49:17;;;;;;;6.50;0.77;;;10.60;99.90;;;;;;5096561;28;20032;-76
2022/02/23 11:51:44;;;;;;;5.18;0.30;;;10.70;99.90;;;;;;5096475;28;20043;-76
2022/02/23 11:54:10;;;;;;;5.18;0.30;;;10.70;99.90;;;;;;5096613;28;20393;-76
2022/02/23 11:56:38;;;;;;;7.00;0.57;;;10.80;99.90;;;;;;5095192;28;20048;-75
2022/02/23 11:59:04;;;;;;;5.07;0.10;;;10.70;99.90;;;;;;5097178;28;20016;-76
2022/02/23 12:01:46;;;;;;;6.43;0.47;;;10.70;99.90;;;;;;5094767;28;20268;-75
2022/02/23 12:04:13;;;;;;;4.47;0.28;;;10.80;99.90;;;;;;5095018;28;20024;-75
2022/02/23 12:07:08;;;;;;;7.65;0.55;;;10.90;99.90;;;;;;5095073;28;20449;-75
2022/02/23 12:09:55;;;;;;;4.07;0.05;;;11.00;99.90;;;;;;5096494;28;20055;-76
2022/02/23 12:12:37;;;;;;;5.28;1.02;;;11.00;99.90;;;;;;5096573;28;20024;-76
2022/02/23 12:15:07;;;;;;;6.60;0.70;;;11.00;99.90;;;;;;5096434;28;20063;-76
2022/02/23 12:17:54;;;;;;;4.88;0.20;;;11.00;99.90;;;;;;5094625;28;20039;-76
2022/02/23 12:20:47;;;;;;;2.63;0.00;;;11.10;99.90;;;;;;5095875;28;20048;-75
2022/02/23 12:23:18;;;;;;;7.57;0.10;;;11.20;99.90;;;;;;5093118;28;20032;-76
2022/02/23 12:25:59;;;;;;;6.90;0.45;;;11.20;99.90;;;;;;5095960;28;20020;-76
2022/02/23 12:28:32;;;;;;;4.30;0.77;;;11.30;99.90;;;;;;5094534;28;20035;-76
2022/02/23 12:31:03;;;;;;;2.55;0.10;;;11.30;99.90;;;;;;5096367;28;20556;-76
2022/02/23 12:33:33;;;;;;;7.80;0.10;;;11.30;99.90;;;;;;5096382;28;20461;-75
2022/02/23 12:36:06;;;;;;;1.42;0.03;;;11.50;99.90;;;;;;5095652;28;20161;-76
2022/02/23 12:38:34;;;;;;;7.65;0.52;;;11.40;97.40;;;;;;5094609;28;20028;-76
2022/02/23 12:41:09;;;;;;;4.93;1.10;;;11.40;98.60;;;;;;5095759;28;20111;-76
2022/02/23 12:43:35;;;;;;;6.78;0.32;;;11.60;99.90;;;;;;5094117;28;20266;-76
2022/02/23 12:46:01;;;;;;;12.30;0.13;;;11.60;97.70;;;;;;5095403;28;20028;-76
2022/02/23 12:48:33;;;;;;;5.00;0.30;;;11.80;97.30;;;;;;5095244;28;20065;-76
2022/02/23 12:51:03;;;;;;;8.05;0.30;;;11.90;99.40;;;;;;5095295;28;20034;-76
2022/02/23 12:53:39;;;;;;;4.22;0.10;;;12.00;97.90;;;;;;5093988;28;20032;-76